Time;durP1;ratioP1;P1;durP2;ratioP2;P2;SDS_P1;SDS_P2;PMS_P1;PMS_P2;Temp;Humidity;BMP_temperature;BMP_pressure;BME280_temperature;BME280_humidity;BME280_pressure;Samples;Min_cycle;Max_cycle;Signal;HPM_P1;HPM_P2
2022/03/19 00:01:10;;;;;;;32.40;11.50;;;;;;;-2.85;44.73;103937.31;1746294;81;25884;-58
2022/03/19 00:03:37;;;;;;;31.25;11.20;;;;;;;-2.84;44.63;103936.45;1749982;81;25747;-57
2022/03/19 00:06:04;;;;;;;19.15;9.10;;;;;;;-2.84;45.04;103938.19;1742040;81;26621;-58
2022/03/19 00:08:32;;;;;;;20.88;10.20;;;;;;;-2.88;45.01;103939.88;1749950;81;26045;-57
2022/03/19 00:11:00;;;;;;;21.70;9.03;;;;;;;-2.91;45.01;103941.13;1746402;81;27476;-57
2022/03/19 00:13:27;;;;;;;21.33;9.20;;;;;;;-2.92;45.41;103938.47;1748753;81;25775;-57
2022/03/19 00:15:54;;;;;;;24.60;9.78;;;;;;;-2.96;45.31;103944.56;1713162;82;25797;-57
2022/03/19 00:18:24;;;;;;;27.55;9.70;;;;;;;-2.98;45.40;103947.14;1750691;81;25833;-57
2022/03/19 00:20:50;;;;;;;21.15;10.05;;;;;;;-2.97;45.43;103944.97;1754485;81;25802;-57
2022/03/19 00:23:17;;;;;;;22.85;9.78;;;;;;;-2.94;45.44;103937.14;1749106;81;27460;-57
2022/03/19 00:25:44;;;;;;;21.82;10.08;;;;;;;-2.95;45.49;103946.30;1750752;81;25743;-57
2022/03/19 00:28:11;;;;;;;23.47;9.50;;;;;;;-2.99;45.67;103945.36;1749315;81;25476;-57
2022/03/19 00:30:38;;;;;;;20.17;9.78;;;;;;;-3.02;46.14;103943.56;1749130;81;25812;-57
2022/03/19 00:33:04;;;;;;;21.65;10.78;;;;;;;-3.07;46.01;103946.55;1749554;81;25751;-58
2022/03/19 00:35:32;;;;;;;25.80;9.73;;;;;;;-3.12;46.23;103945.99;1742233;81;27479;-58
2022/03/19 00:38:01;;;;;;;22.05;10.23;;;;;;;-3.21;46.58;103940.09;1735737;81;25777;-57
2022/03/19 00:40:28;;;;;;;28.27;11.88;;;;;;;-3.30;46.95;103935.11;1705043;83;25693;-58
2022/03/19 00:42:54;;;;;;;33.08;11.85;;;;;;;-3.26;47.33;103940.44;1738438;82;25750;-57
2022/03/19 00:45:21;;;;;;;22.87;10.60;;;;;;;-3.24;47.43;103940.92;1738835;82;25748;-57
2022/03/19 00:47:49;;;;;;;24.75;10.65;;;;;;;-3.24;47.24;103940.92;1738635;81;28043;-58
2022/03/19 00:50:15;;;;;;;27.25;12.50;;;;;;;-3.29;47.42;103942.59;1738216;82;25510;-58
2022/03/19 00:52:42;;;;;;;23.27;11.20;;;;;;;-3.34;47.52;103945.13;1738987;82;25680;-58
2022/03/19 00:55:09;;;;;;;23.90;11.80;;;;;;;-3.42;47.41;103944.49;1736332;82;25927;-59
2022/03/19 00:57:46;;;;;;;28.27;11.25;;;;;;;-3.49;47.45;103946.09;1739473;80;27227;-58
2022/03/19 01:00:17;;;;;;;25.00;10.70;;;;;;;-3.54;47.61;103943.36;1735388;82;28401;-58
2022/03/19 01:02:45;;;;;;;31.77;12.88;;;;;;;-3.58;48.15;103944.17;1704359;83;25764;-58
2022/03/19 01:05:14;;;;;;;27.25;12.45;;;;;;;-3.63;47.87;103945.83;1732242;81;25758;-58
2022/03/19 01:07:50;;;;;;;27.45;11.10;;;;;;;-3.63;48.19;103949.77;1738334;82;26755;-57
2022/03/19 01:10:27;;;;;;;30.23;13.05;;;;;;;-3.67;48.01;103943.97;1736029;82;25982;-57
2022/03/19 01:12:56;;;;;;;35.58;11.70;;;;;;;-3.70;48.09;103947.83;1740742;82;27438;-57
2022/03/19 01:15:25;;;;;;;30.20;13.00;;;;;;;-3.72;48.01;103947.81;1739841;82;25527;-59
2022/03/19 01:17:52;;;;;;;31.37;12.60;;;;;;;-3.70;48.06;103942.57;1738846;82;25854;-58
2022/03/19 01:20:20;;;;;;;29.40;11.95;;;;;;;-3.70;48.21;103951.38;1738942;82;26477;-58
2022/03/19 01:22:48;;;;;;;30.10;12.35;;;;;;;-3.73;48.12;103938.58;1738366;82;25723;-58
2022/03/19 01:25:17;;;;;;;24.25;12.18;;;;;;;-3.74;48.02;103947.32;1739033;82;27522;-58
2022/03/19 01:27:47;;;;;;;34.43;13.75;;;;;;;-3.79;48.20;103941.52;1739530;82;25868;-58
2022/03/19 01:30:17;;;;;;;30.88;12.75;;;;;;;-3.84;48.27;103943.16;1740131;81;25749;-58
2022/03/19 01:32:46;;;;;;;27.27;12.53;;;;;;;-3.93;48.64;103939.00;1739557;81;25965;-58
2022/03/19 01:35:16;;;;;;;27.48;12.98;;;;;;;-4.02;49.24;103938.79;1738082;82;25867;-58
2022/03/19 01:37:43;;;;;;;32.33;13.50;;;;;;;-4.10;49.01;103941.22;1736464;82;27482;-58
2022/03/19 01:40:13;;;;;;;27.90;12.80;;;;;;;-4.18;49.22;103933.58;1738757;82;25953;-58
2022/03/19 01:42:45;;;;;;;25.75;12.82;;;;;;;-4.22;49.52;103940.95;1733897;82;25839;-57
2022/03/19 01:45:23;;;;;;;27.17;12.10;;;;;;;-4.26;49.74;103930.78;1738721;82;25827;-57
2022/03/19 01:47:51;;;;;;;57.20;26.37;;;;;;;-4.30;49.58;103940.75;1737117;82;25854;-57
2022/03/19 01:50:20;;;;;;;75.05;31.25;;;;;;;-4.33;49.93;103935.00;1699359;83;28335;-59
2022/03/19 01:52:48;;;;;;;25.00;13.40;;;;;;;-4.38;49.84;103933.09;1740066;81;26545;-59
2022/03/19 01:55:23;;;;;;;31.90;12.70;;;;;;;-4.42;49.78;103940.02;1717681;82;25848;-58
2022/03/19 01:57:52;;;;;;;24.87;12.45;;;;;;;-4.47;49.85;103931.11;1737590;82;26620;-58
2022/03/19 02:00:22;;;;;;;24.35;11.70;;;;;;;-4.49;49.82;103940.28;1734896;82;25838;-59
2022/03/19 02:02:52;;;;;;;22.37;11.60;;;;;;;-4.48;50.10;103931.99;1703605;83;27623;-58
2022/03/19 02:05:22;;;;;;;26.25;11.08;;;;;;;-4.52;49.97;103934.94;1680952;85;25791;-59
2022/03/19 02:07:51;;;;;;;27.65;10.85;;;;;;;-4.52;50.31;103932.31;1738508;82;25482;-59
2022/03/19 02:10:20;;;;;;;28.20;12.18;;;;;;;-4.56;50.39;103939.66;1738724;82;25831;-58
2022/03/19 02:12:50;;;;;;;25.10;11.78;;;;;;;-4.60;49.93;103928.59;1738793;82;25815;-58
2022/03/19 02:15:16;;;;;;;25.27;11.70;;;;;;;-4.64;50.16;103942.08;1737709;80;28540;-58
2022/03/19 02:17:44;;;;;;;20.27;11.03;;;;;;;-4.68;50.48;103934.98;1737814;82;25738;-59
2022/03/19 02:20:13;;;;;;;26.00;11.25;;;;;;;-4.68;50.32;103938.02;1738656;82;25829;-58
2022/03/19 02:22:40;;;;;;;30.85;11.73;;;;;;;-4.68;50.68;103945.49;1739766;82;25903;-58
2022/03/19 02:27:55;;;;;;;29.02;11.35;;;;;;;-4.71;50.27;103948.03;1737378;81;27542;-58
2022/03/19 02:30:22;;;;;;;29.48;11.83;;;;;;;-4.71;50.38;103950.22;1739438;82;25798;-58
2022/03/19 02:32:51;;;;;;;27.20;11.90;;;;;;;-4.69;50.32;103950.28;1739115;82;25826;-58
2022/03/19 02:35:19;;;;;;;24.32;11.83;;;;;;;-4.69;50.09;103946.74;1738545;81;25691;-58
2022/03/19 02:37:49;;;;;;;27.48;10.70;;;;;;;-4.72;50.15;103947.16;1750138;79;25781;-58
2022/03/19 02:40:19;;;;;;;24.77;12.18;;;;;;;-4.76;50.56;103946.59;1741990;81;27148;-57
2022/03/19 02:42:55;;;;;;;25.08;12.05;;;;;;;-4.79;50.17;103951.75;1742053;81;25762;-58
2022/03/19 02:45:23;;;;;;;25.70;11.65;;;;;;;-4.83;50.23;103950.31;1746779;81;25768;-58
2022/03/19 02:47:59;;;;;;;35.25;11.68;;;;;;;-4.87;50.09;103949.34;1746254;81;25707;-58
2022/03/19 02:50:35;;;;;;;23.60;12.00;;;;;;;-4.89;50.22;103949.31;1749970;81;25803;-58
2022/03/19 02:53:08;;;;;;;23.32;12.05;;;;;;;-4.89;50.52;103951.94;1745993;80;27447;-57
2022/03/19 02:55:39;;;;;;;32.53;12.33;;;;;;;-4.87;50.53;103955.91;1743483;81;25926;-58
2022/03/19 02:58:08;;;;;;;30.23;12.20;;;;;;;-4.90;50.56;103954.09;1738366;81;25818;-58
2022/03/19 03:00:36;;;;;;;32.45;13.43;;;;;;;-4.90;50.46;103961.09;1744949;81;25822;-59
2022/03/19 03:03:04;;;;;;;29.23;12.05;;;;;;;-4.88;50.76;103961.59;1745226;80;26031;-60
2022/03/19 03:05:31;;;;;;;23.45;12.33;;;;;;;-4.90;50.56;103961.97;1743747;81;27489;-59
2022/03/19 03:07:58;;;;;;;23.67;11.60;;;;;;;-4.87;50.53;103961.16;1743838;81;25823;-58
2022/03/19 03:10:25;;;;;;;29.80;12.88;;;;;;;-4.85;50.49;103968.67;1746430;81;25770;-58
2022/03/19 03:12:52;;;;;;;23.55;12.00;;;;;;;-4.85;50.62;103968.67;1744755;81;25803;-58
2022/03/19 03:15:19;;;;;;;29.20;11.90;;;;;;;-4.84;50.91;103963.89;1745567;81;25450;-57
2022/03/19 03:17:47;;;;;;;23.07;11.83;;;;;;;-4.85;50.69;103971.73;1746758;81;27412;-59
2022/03/19 03:20:14;;;;;;;27.73;12.25;;;;;;;-4.90;50.81;103968.55;1746213;81;25795;-59
2022/03/19 03:22:44;;;;;;;24.43;12.98;;;;;;;-4.95;50.97;103971.87;1741271;81;25781;-59
2022/03/19 03:25:11;;;;;;;32.08;13.83;;;;;;;-4.95;50.88;103974.51;1745426;81;26679;-59
2022/03/19 03:27:38;;;;;;;29.67;12.13;;;;;;;-4.93;51.10;103978.95;1748703;81;25530;-59
2022/03/19 03:30:07;;;;;;;22.15;11.08;;;;;;;-4.92;51.00;103975.48;1747153;81;27553;-59
2022/03/19 03:32:34;;;;;;;26.17;11.93;;;;;;;-4.91;50.96;103981.64;1744542;81;25763;-59
2022/03/19 03:35:01;;;;;;;28.45;11.88;;;;;;;-4.95;50.89;103983.30;1743368;81;25635;-58
2022/03/19 03:37:28;;;;;;;32.35;12.93;;;;;;;-4.95;50.97;103985.01;1716820;82;25814;-58
2022/03/19 03:39:54;;;;;;;28.80;11.55;;;;;;;-4.99;50.97;103984.47;1721792;82;25755;-59
2022/03/19 03:42:21;;;;;;;28.27;11.70;;;;;;;-5.01;51.16;103984.84;1720812;82;29529;-58
2022/03/19 03:44:48;;;;;;;33.90;12.25;;;;;;;-5.06;51.25;103982.97;1717254;82;25780;-59
2022/03/19 03:47:15;;;;;;;28.42;13.18;;;;;;;-5.10;51.47;103986.77;1719823;82;25765;-59
2022/03/19 03:49:41;;;;;;;27.67;12.37;;;;;;;-5.13;51.46;103990.64;1748591;81;25785;-58
2022/03/19 03:52:08;;;;;;;25.55;12.33;;;;;;;-5.13;51.49;103988.89;1751951;80;25775;-58
2022/03/19 03:54:35;;;;;;;25.97;11.70;;;;;;;-5.20;51.43;103991.75;1741712;80;27497;-58
2022/03/19 03:57:03;;;;;;;26.30;11.75;;;;;;;-5.24;51.79;103994.24;1748699;80;26089;-58
2022/03/19 03:59:30;;;;;;;30.68;13.83;;;;;;;-5.27;51.81;103992.42;1742363;81;26488;-58
2022/03/19 04:01:58;;;;;;;27.25;12.35;;;;;;;-5.29;52.01;103993.23;1746633;80;25984;-59
2022/03/19 04:04:25;;;;;;;29.72;12.47;;;;;;;-5.32;51.88;103999.69;1705584;82;25905;-58
2022/03/19 04:06:52;;;;;;;23.47;11.35;;;;;;;-5.35;52.16;103999.18;1749543;80;27476;-58
2022/03/19 04:09:19;;;;;;;26.27;11.85;;;;;;;-5.38;51.97;104001.30;1720257;82;25522;-58
2022/03/19 04:11:45;;;;;;;25.32;10.93;;;;;;;-5.37;51.81;104012.67;1751244;80;25644;-58
2022/03/19 04:14:12;;;;;;;23.70;11.70;;;;;;;-5.41;52.26;104005.13;1743336;80;25797;-58
2022/03/19 04:16:39;;;;;;;24.55;11.70;;;;;;;-5.48;52.09;104003.17;1742836;81;25743;-58
2022/03/19 04:19:06;;;;;;;32.42;12.50;;;;;;;-5.49;52.20;104004.00;1748636;80;27615;-58
2022/03/19 04:21:34;;;;;;;28.40;11.78;;;;;;;-5.51;52.11;104000.44;1740447;81;25795;-58
2022/03/19 04:24:00;;;;;;;32.55;12.93;;;;;;;-5.51;52.19;104007.00;1751403;80;26644;-58
2022/03/19 04:26:27;;;;;;;30.32;11.53;;;;;;;-5.51;52.15;104005.69;1743521;80;25823;-58
2022/03/19 04:28:54;;;;;;;31.50;12.10;;;;;;;-5.52;52.04;104012.68;1747018;80;25723;-58
2022/03/19 04:31:21;;;;;;;30.60;12.50;;;;;;;-5.52;52.03;104011.80;1748997;80;28147;-59
2022/03/19 04:33:47;;;;;;;27.60;12.63;;;;;;;-5.52;51.99;104020.98;1747476;80;25814;-58
2022/03/19 04:39:02;;;;;;;24.67;12.23;;;;;;;-5.48;52.25;104020.66;1746332;81;25847;-58
2022/03/19 04:41:30;;;;;;;28.20;13.15;;;;;;;-5.45;52.37;104020.33;1741868;81;25885;-59
2022/03/19 04:43:57;;;;;;;24.98;11.80;;;;;;;-5.44;52.52;104026.45;1742579;81;27477;-58
2022/03/19 04:46:24;;;;;;;32.15;11.88;;;;;;;-5.48;52.95;104024.16;1749426;80;25799;-58
2022/03/19 04:48:52;;;;;;;35.55;12.07;;;;;;;-5.52;52.89;104019.23;1748212;81;25805;-58
2022/03/19 04:51:22;;;;;;;25.08;12.40;;;;;;;-5.54;52.94;104030.09;1749110;81;25847;-58
2022/03/19 04:53:52;;;;;;;20.02;11.40;;;;;;;-5.53;52.88;104033.63;1716103;82;25807;-58
2022/03/19 04:56:24;;;;;;;26.60;12.47;;;;;;;-5.54;52.69;104028.78;1745378;81;27509;-58
2022/03/19 04:58:54;;;;;;;24.43;12.35;;;;;;;-5.44;52.73;104027.77;1747122;80;25845;-57
2022/03/19 05:01:23;;;;;;;28.62;13.35;;;;;;;-5.41;52.69;104031.37;1742198;81;25783;-58
2022/03/19 05:03:50;;;;;;;34.05;13.48;;;;;;;-5.33;52.65;104030.73;1743541;80;25822;-58
2022/03/19 05:06:17;;;;;;;36.85;13.70;;;;;;;-5.32;52.77;104031.17;1742742;81;25489;-59
2022/03/19 05:08:44;;;;;;;30.00;13.15;;;;;;;-5.30;52.62;104043.94;1747081;80;27710;-59
2022/03/19 05:11:13;;;;;;;37.53;14.58;;;;;;;-5.20;52.80;104041.62;1688586;82;25852;-58
2022/03/19 05:13:45;;;;;;;38.60;16.90;;;;;;;-5.07;52.71;104046.85;1746424;80;25699;-58
2022/03/19 05:16:12;;;;;;;39.27;15.18;;;;;;;-4.99;53.10;104039.62;1748369;80;25829;-59
2022/03/19 05:18:39;;;;;;;41.73;18.40;;;;;;;-4.90;52.78;104044.70;1743960;80;25802;-58
2022/03/19 05:21:06;;;;;;;45.85;18.17;;;;;;;-4.84;53.06;104050.55;1751140;80;27505;-59
2022/03/19 05:23:37;;;;;;;42.43;18.62;;;;;;;-4.89;52.58;104049.11;1751312;80;26236;-58
2022/03/19 05:26:04;;;;;;;38.15;18.42;;;;;;;-4.86;52.45;104049.61;1742877;80;25719;-57
2022/03/19 05:28:31;;;;;;;48.68;20.20;;;;;;;-4.74;52.48;104060.89;1749196;80;26458;-58
2022/03/19 05:30:58;;;;;;;47.90;21.23;;;;;;;-4.71;52.85;104055.30;1744925;81;25773;-58
2022/03/19 05:36:12;;;;;;;55.05;20.62;;;;;;;-4.64;52.92;104056.80;1741167;80;25747;-57
2022/03/19 05:38:39;;;;;;;58.90;23.15;;;;;;;-4.63;52.79;104063.41;1751224;80;25758;-58
2022/03/19 05:41:06;;;;;;;44.08;22.07;;;;;;;-4.52;52.97;104057.13;1751108;80;25801;-57
2022/03/19 05:43:32;;;;;;;45.55;22.73;;;;;;;-4.44;52.85;104060.85;1757168;80;25718;-58
2022/03/19 05:45:59;;;;;;;57.43;22.85;;;;;;;-4.36;52.80;104070.71;1752813;80;27460;-58
2022/03/19 05:48:26;;;;;;;53.68;23.07;;;;;;;-4.29;52.55;104068.27;1754788;80;25805;-59
2022/03/19 05:50:54;;;;;;;39.67;18.75;;;;;;;-4.20;52.44;104066.33;1765049;80;25474;-59
2022/03/19 05:53:21;;;;;;;51.00;20.60;;;;;;;-4.08;52.20;104068.38;1764801;80;25826;-59
2022/03/19 05:55:48;;;;;;;48.35;18.90;;;;;;;-3.97;52.14;104070.87;1755572;80;26213;-59
2022/03/19 05:58:16;;;;;;;52.60;20.10;;;;;;;-3.83;51.94;104067.27;1762825;80;28216;-58
2022/03/19 06:00:43;;;;;;;45.98;20.02;;;;;;;-3.67;51.76;104071.15;1759174;80;25813;-58
2022/03/19 06:03:12;;;;;;;45.00;18.98;;;;;;;-3.55;51.45;104070.58;1751375;80;25775;-59
2022/03/19 06:05:39;;;;;;;44.10;19.05;;;;;;;-3.42;51.31;104072.16;1757381;80;27944;-58
2022/03/19 06:08:06;;;;;;;40.05;19.60;;;;;;;-3.35;50.96;104072.36;1752144;80;25808;-58
2022/03/19 06:10:35;;;;;;;40.28;16.50;;;;;;;-3.37;50.41;104071.42;1735965;82;27371;-59
2022/03/19 06:13:03;;;;;;;39.58;17.25;;;;;;;-3.35;50.46;104076.71;1735551;82;25798;-58
2022/03/19 06:15:30;;;;;;;39.23;20.55;;;;;;;-3.34;50.25;104074.55;1743728;80;25749;-57
2022/03/19 06:17:56;;;;;;;43.73;17.42;;;;;;;-3.27;50.53;104067.24;1761733;80;25784;-59
2022/03/19 06:20:23;;;;;;;33.65;16.27;;;;;;;-3.20;50.31;104074.45;1762053;80;25756;-58
2022/03/19 06:22:51;;;;;;;52.48;21.12;;;;;;;-3.18;50.09;104071.84;1765285;80;28239;-58
2022/03/19 06:25:18;;;;;;;35.33;17.15;;;;;;;-3.12;50.03;104074.60;1748074;80;25822;-58
2022/03/19 06:27:45;;;;;;;37.60;16.30;;;;;;;-3.02;50.01;104074.39;1749833;80;25832;-58
2022/03/19 06:30:13;;;;;;;39.60;19.90;;;;;;;-2.95;49.87;104077.62;1762236;80;25779;-58
2022/03/19 06:32:41;;;;;;;44.65;18.98;;;;;;;-2.82;50.03;104076.13;1758070;80;25693;-58
2022/03/19 06:35:10;;;;;;;40.10;17.10;;;;;;;-2.72;49.83;104071.52;1759770;80;27478;-58
2022/03/19 06:37:38;;;;;;;43.42;17.52;;;;;;;-2.60;49.74;104078.77;1756053;80;25501;-59
2022/03/19 06:40:07;;;;;;;44.70;16.07;;;;;;;-2.48;49.47;104077.25;1740580;81;25700;-58
2022/03/19 06:42:34;;;;;;;40.12;16.82;;;;;;;-2.45;49.21;104075.55;1736469;81;25949;-59
2022/03/19 06:45:01;;;;;;;36.35;15.83;;;;;;;-2.45;49.08;104073.33;1748199;81;25796;-58
2022/03/19 06:47:28;;;;;;;51.30;18.73;;;;;;;-2.35;49.21;104079.24;1738283;81;27470;-59
2022/03/19 06:49:54;;;;;;;41.35;16.07;;;;;;;-2.25;49.07;104075.92;1740877;81;25716;-58
2022/03/19 06:52:24;;;;;;;33.65;16.70;;;;;;;-2.21;48.88;104077.77;1742253;81;25723;-58
2022/03/19 06:54:51;;;;;;;34.35;16.07;;;;;;;-2.10;48.86;104078.38;1744567;81;25713;-58
2022/03/19 06:57:17;;;;;;;39.48;16.45;;;;;;;-2.02;48.52;104078.52;1746259;81;25896;-58
2022/03/19 06:59:44;;;;;;;41.63;16.37;;;;;;;-2.01;48.37;104071.94;1743609;81;27512;-58
2022/03/19 07:02:11;;;;;;;28.07;14.87;;;;;;;-1.95;48.29;104072.48;1742049;81;25708;-58
2022/03/19 07:04:38;;;;;;;35.48;15.35;;;;;;;-2.00;48.19;104080.31;1741737;80;25760;-58
2022/03/19 07:07:05;;;;;;;41.45;15.30;;;;;;;-1.87;48.37;104083.18;1734291;80;26160;-59
2022/03/19 07:09:33;;;;;;;40.52;16.40;;;;;;;-1.77;48.12;104078.52;1735122;82;25809;-57
2022/03/19 07:12:00;;;;;;;32.98;16.17;;;;;;;-1.67;48.15;104079.12;1740582;81;27478;-58
2022/03/19 07:14:26;;;;;;;35.88;16.32;;;;;;;-1.51;48.17;104082.88;1735212;81;25758;-59
2022/03/19 07:16:55;;;;;;;33.08;14.53;;;;;;;-1.37;48.00;104081.77;1735423;82;25807;-59
2022/03/19 07:19:22;;;;;;;29.55;13.53;;;;;;;-1.33;47.83;104066.44;1738676;81;25808;-59
2022/03/19 07:21:48;;;;;;;28.05;14.33;;;;;;;-1.29;47.82;104073.97;1735584;81;25807;-59
2022/03/19 07:24:17;;;;;;;30.90;13.48;;;;;;;-1.18;47.84;104069.73;1741997;81;27472;-58
2022/03/19 07:26:44;;;;;;;28.38;13.90;;;;;;;-1.03;47.78;104079.59;1740378;81;25766;-58
2022/03/19 07:29:13;;;;;;;30.43;13.88;;;;;;;-0.97;47.59;104070.45;1733261;81;25845;-58
2022/03/19 07:31:39;;;;;;;24.12;12.40;;;;;;;-0.81;47.61;104079.89;1730707;81;25811;-57
2022/03/19 07:34:06;;;;;;;43.33;18.60;;;;;;;-0.70;47.43;104078.28;1730809;82;25549;-58
2022/03/19 07:36:33;;;;;;;16.55;7.85;;;;;;;-0.57;47.49;104071.79;1730824;82;27485;-57
2022/03/19 07:39:01;;;;;;;14.50;6.03;;;;;;;-0.41;46.64;104077.73;1735534;82;25514;-57
2022/03/19 07:41:45;;;;;;;15.00;6.70;;;;;;;-0.23;46.39;104079.67;1738465;82;25831;-57
2022/03/19 07:44:13;;;;;;;15.98;5.50;;;;;;;-0.03;45.67;104077.66;1738205;82;26646;-58
2022/03/19 07:46:42;;;;;;;11.73;5.15;;;;;;;0.15;44.94;104067.23;1738366;82;25768;-57
2022/03/19 07:49:10;;;;;;;12.60;5.85;;;;;;;0.29;44.52;104071.31;1737960;82;28499;-58
2022/03/19 07:51:37;;;;;;;16.57;7.58;;;;;;;0.43;44.45;104064.80;1738056;82;25803;-58
2022/03/19 07:54:04;;;;;;;14.33;6.80;;;;;;;0.59;43.49;104069.74;1738320;82;25797;-58
2022/03/19 07:56:31;;;;;;;16.15;6.50;;;;;;;0.67;43.93;104061.85;1771388;80;25817;-58
2022/03/19 07:58:58;;;;;;;22.52;7.78;;;;;;;0.76;43.83;104064.56;1770106;80;26053;-59
2022/03/19 08:01:25;;;;;;;16.25;7.83;;;;;;;0.85;43.94;104067.69;1770846;81;27533;-58
2022/03/19 08:03:52;;;;;;;20.15;7.55;;;;;;;0.99;43.58;104063.78;1770550;81;25742;-58
2022/03/19 08:06:20;;;;;;;19.27;8.55;;;;;;;1.09;43.47;104064.27;1770547;80;25831;-58
2022/03/19 08:08:48;;;;;;;13.88;8.00;;;;;;;1.23;43.67;104060.35;1770699;81;25944;-58
2022/03/19 08:11:15;;;;;;;13.22;6.87;;;;;;;1.39;42.60;104061.30;1770057;81;25623;-58
2022/03/19 08:13:42;;;;;;;17.00;8.58;;;;;;;1.48;42.40;104048.48;1770922;81;27451;-58
2022/03/19 08:16:09;;;;;;;16.60;8.68;;;;;;;1.61;42.44;104056.48;1770357;81;25723;-58
2022/03/19 08:18:37;;;;;;;20.00;8.28;;;;;;;1.75;42.28;104053.86;1770681;81;25766;-58
2022/03/19 08:21:04;;;;;;;21.27;8.20;;;;;;;1.88;41.81;104052.55;1770341;81;25870;-58
2022/03/19 08:23:32;;;;;;;19.75;9.05;;;;;;;2.02;41.28;104050.33;1770900;81;25635;-58
2022/03/19 08:26:00;;;;;;;13.30;7.60;;;;;;;2.17;41.31;104048.12;1732131;80;28137;-57
2022/03/19 08:28:27;;;;;;;18.67;9.10;;;;;;;2.34;40.50;104052.10;1723308;82;25872;-57
2022/03/19 08:30:54;;;;;;;14.00;8.43;;;;;;;2.49;40.42;104053.86;1723726;82;25487;-58
2022/03/19 08:33:21;;;;;;;19.65;8.90;;;;;;;2.65;39.38;104044.06;1723344;82;25803;-57
2022/03/19 08:35:48;;;;;;;15.78;7.60;;;;;;;2.76;39.47;104046.25;1723459;83;25688;-57
2022/03/19 08:41:18;;;;;;;15.68;6.15;;;;;;;3.11;38.37;104034.59;1725906;83;26353;-57
2022/03/19 08:43:45;;;;;;;16.90;6.08;;;;;;;3.19;38.22;104033.23;1725623;82;25805;-57
2022/03/19 08:46:12;;;;;;;10.40;5.90;;;;;;;3.39;38.38;104033.13;1725712;83;25948;-58
2022/03/19 08:48:39;;;;;;;16.27;7.08;;;;;;;3.64;37.66;104023.64;1725874;82;25483;-57
2022/03/19 08:53:51;;;;;;;10.60;6.75;;;;;;;4.18;37.89;104022.31;1724871;82;25783;-57
2022/03/19 08:56:18;;;;;;;15.45;6.78;;;;;;;4.50;36.46;104018.47;1726597;81;25851;-58
2022/03/19 08:58:45;;;;;;;12.15;5.75;;;;;;;4.69;35.21;104016.03;1724130;82;26540;-57
2022/03/19 09:01:13;;;;;;;8.35;4.80;;;;;;;4.82;36.19;104012.77;1729099;82;25509;-57
2022/03/19 09:03:40;;;;;;;13.00;4.05;;;;;;;5.11;35.84;104019.49;1730136;82;27541;-57
2022/03/19 09:06:10;;;;;;;11.25;4.83;;;;;;;5.40;34.32;104006.66;1696388;84;25532;-59
2022/03/19 09:08:36;;;;;;;7.65;4.47;;;;;;;5.58;33.32;104010.39;1728700;82;25784;-58
2022/03/19 09:11:02;;;;;;;9.08;4.65;;;;;;;5.80;32.84;104007.36;1696990;84;25860;-58
2022/03/19 09:13:29;;;;;;;15.10;3.95;;;;;;;5.93;32.01;104006.70;1730674;82;25753;-59
2022/03/19 09:15:56;;;;;;;12.28;4.62;;;;;;;6.15;31.56;103997.88;1696977;83;29715;-57
2022/03/19 09:18:23;;;;;;;7.97;4.53;;;;;;;6.18;31.39;103999.17;1696831;84;25839;-58
2022/03/19 09:20:50;;;;;;;12.00;4.20;;;;;;;6.13;31.99;103998.83;1697608;83;25756;-57
2022/03/19 09:23:17;;;;;;;10.32;4.72;;;;;;;6.36;32.28;103993.95;1730641;82;25779;-57
2022/03/19 09:25:44;;;;;;;9.28;4.37;;;;;;;6.55;32.08;103997.14;1716300;82;25878;-57
2022/03/19 09:28:11;;;;;;;9.00;4.50;;;;;;;6.63;30.91;103995.66;1711316;83;29603;-58
2022/03/19 09:30:38;;;;;;;7.65;4.05;;;;;;;7.11;31.23;103984.38;1710156;83;25760;-58
2022/03/19 09:33:05;;;;;;;14.70;4.80;;;;;;;7.93;30.03;103978.42;1711356;83;25677;-56
2022/03/19 09:35:33;;;;;;;22.90;4.97;;;;;;;8.75;28.68;103973.02;1710756;83;25819;-59
2022/03/19 09:38:00;;;;;;;13.58;5.22;;;;;;;9.32;29.08;103977.60;1711028;83;25815;-58
2022/03/19 09:40:27;;;;;;;8.20;4.53;;;;;;;10.06;28.87;103977.80;1743250;82;27650;-57
2022/03/19 09:42:59;;;;;;;11.85;3.92;;;;;;;10.82;26.40;103971.50;1745264;82;25634;-57
2022/03/19 09:45:28;;;;;;;7.08;4.10;;;;;;;11.30;25.50;103971.83;1745112;82;25782;-58
2022/03/19 09:47:56;;;;;;;9.25;3.95;;;;;;;11.74;24.47;103971.80;1745405;82;26432;-59
2022/03/19 09:50:23;;;;;;;11.25;4.50;;;;;;;12.13;23.66;103963.91;1745301;82;25856;-59
2022/03/19 09:52:54;;;;;;;15.00;4.80;;;;;;;12.42;24.03;103970.69;1745071;82;27406;-58
2022/03/19 09:58:23;;;;;;;4.53;3.12;;;;;;;13.41;24.46;103963.83;1752360;79;25730;-58
2022/03/19 10:00:50;;;;;;;7.83;3.00;;;;;;;13.73;22.93;103967.61;1758167;80;25883;-57
2022/03/19 10:03:22;;;;;;;5.03;3.42;;;;;;;14.18;22.80;103957.64;1748187;80;25729;-58
2022/03/19 10:08:39;;;;;;;26.70;5.05;;;;;;;15.36;21.26;103944.38;1760320;80;25739;-58
2022/03/19 10:11:09;;;;;;;13.75;4.25;;;;;;;15.62;21.16;103942.80;1756387;80;25744;-58
2022/03/19 10:13:44;;;;;;;8.55;4.05;;;;;;;15.87;22.04;103946.81;1763176;80;25935;-57
2022/03/19 10:16:21;;;;;;;5.83;3.05;;;;;;;16.27;21.25;103941.61;1737152;82;25845;-58
2022/03/19 10:19:00;;;;;;;10.28;3.77;;;;;;;16.56;19.73;103934.83;1737091;82;27498;-59
2022/03/19 10:21:30;;;;;;;11.10;3.98;;;;;;;16.21;19.62;103927.92;1746902;80;26186;-58
2022/03/19 10:24:01;;;;;;;10.15;3.80;;;;;;;15.87;19.55;103930.02;1757184;80;25732;-58
2022/03/19 10:26:34;;;;;;;7.00;2.92;;;;;;;16.14;19.03;103928.43;1745082;80;25789;-58
2022/03/19 10:29:09;;;;;;;14.47;3.80;;;;;;;15.51;19.71;103930.39;1744475;80;25861;-58
2022/03/19 10:31:39;;;;;;;8.45;3.58;;;;;;;15.63;18.94;103922.84;1747469;81;27550;-58
2022/03/19 10:34:08;;;;;;;22.85;4.35;;;;;;;14.83;19.50;103925.69;1742370;80;25816;-59
2022/03/19 10:36:41;;;;;;;10.20;2.50;;;;;;;13.65;20.01;103933.77;1743287;80;26305;-58
2022/03/19 10:39:25;;;;;;;12.15;3.05;;;;;;;12.55;20.44;103935.03;1743222;81;26445;-59
2022/03/19 10:41:52;;;;;;;3.80;2.40;;;;;;;11.99;21.52;103922.23;1755321;80;25837;-58
2022/03/19 10:44:24;;;;;;;6.17;2.90;;;;;;;13.17;21.74;103923.52;1719189;82;27214;-59
2022/03/19 10:47:02;;;;;;;6.22;2.80;;;;;;;14.22;21.38;103914.07;1703281;83;25702;-58
2022/03/19 10:49:30;;;;;;;10.80;3.80;;;;;;;14.75;20.62;103911.21;1741484;82;25478;-58
2022/03/19 10:52:01;;;;;;;6.28;2.55;;;;;;;15.43;21.26;103902.34;1741587;82;25840;-59
2022/03/19 10:54:30;;;;;;;6.05;2.35;;;;;;;15.31;18.83;103904.81;1705823;83;25666;-58
2022/03/19 10:56:57;;;;;;;9.78;3.20;;;;;;;14.67;20.08;103907.56;1739291;82;27437;-57
2022/03/19 10:59:24;;;;;;;5.03;2.65;;;;;;;14.51;19.52;103899.41;1741116;80;25895;-59
2022/03/19 11:01:54;;;;;;;5.08;2.33;;;;;;;14.94;19.71;103907.45;1739841;80;25841;-58
2022/03/19 11:04:23;;;;;;;3.95;2.50;;;;;;;15.73;19.32;103893.33;1743773;80;25796;-58
2022/03/19 11:06:52;;;;;;;4.87;3.00;;;;;;;16.42;19.70;103886.80;1741225;82;25886;-58
2022/03/19 11:09:23;;;;;;;5.95;2.77;;;;;;;17.38;18.86;103881.00;1706156;83;27390;-58
2022/03/19 11:12:03;;;;;;;11.53;3.47;;;;;;;17.99;17.05;103878.09;1705850;83;25804;-58
2022/03/19 11:14:31;;;;;;;14.63;3.10;;;;;;;17.51;17.37;103876.44;1742163;81;25511;-58
2022/03/19 11:17:25;;;;;;;8.20;3.90;;;;;;;15.98;18.42;103871.48;1741921;82;26428;-58
2022/03/19 11:19:55;;;;;;;7.28;2.87;;;;;;;15.90;18.20;103866.05;1705981;83;32501;-57
2022/03/19 11:22:23;;;;;;;9.63;3.10;;;;;;;16.59;17.78;103871.63;1742179;82;27460;-59
2022/03/19 11:25:11;;;;;;;5.05;2.65;;;;;;;16.95;18.08;103865.23;1739583;81;25823;-59
2022/03/19 11:27:41;;;;;;;3.95;2.52;;;;;;;17.12;18.37;103851.01;1735976;82;25788;-59
2022/03/19 11:30:28;;;;;;;12.85;2.92;;;;;;;17.43;17.41;103855.22;1736043;80;25805;-59
2022/03/19 11:33:20;;;;;;;4.72;2.77;;;;;;;17.52;16.94;103858.66;1753482;78;25703;-58
2022/03/19 11:36:01;;;;;;;3.20;2.12;;;;;;;17.27;17.38;103857.22;1754667;80;27532;-59
2022/03/19 11:38:31;;;;;;;10.48;2.75;;;;;;;16.83;18.18;103850.58;1767814;80;25698;-58
2022/03/19 11:41:00;;;;;;;5.47;2.52;;;;;;;17.03;16.89;103848.41;1737333;80;25503;-59